createdAt,value
2023-03-05T00:08:20.979Z,27.84
2023-03-05T00:10:48.318Z,27.49
2023-03-05T00:13:35.273Z,26.39
2023-03-05T00:16:02.491Z,27.20
2023-03-05T00:18:29.355Z,27.27
2023-03-05T00:20:55.931Z,26.12
2023-03-05T00:23:22.768Z,26.74
2023-03-05T00:25:50.218Z,26.78
2023-03-05T00:28:17.738Z,26.47
2023-03-05T00:30:47.529Z,26.48
2023-03-05T00:33:16.519Z,27.28
2023-03-05T00:35:45.444Z,26.94
2023-03-05T00:38:12.433Z,27.76
2023-03-05T00:40:40.004Z,27.34
2023-03-05T00:43:09.835Z,26.84
2023-03-05T00:45:36.786Z,27.26
2023-03-05T00:48:04.742Z,27.05
2023-03-05T00:50:32.367Z,27.75
2023-03-05T00:53:02.020Z,26.77
2023-03-05T00:55:31.531Z,27.07
2023-03-05T00:57:58.993Z,26.88
2023-03-05T01:00:26.601Z,26.43
2023-03-05T01:02:53.522Z,27.07
2023-03-05T01:05:25.223Z,27.11
2023-03-05T01:07:52.097Z,26.68
2023-03-05T01:10:21.523Z,26.63
2023-03-05T01:15:44.643Z,26.85
2023-03-05T01:18:15.465Z,26.01
2023-03-05T01:20:42.449Z,25.58
2023-03-05T01:23:17.464Z,25.57
2023-03-05T01:25:51.354Z,25.87
2023-03-05T01:28:20.404Z,26.47
2023-03-05T01:30:47.864Z,25.96
2023-03-05T01:33:17.649Z,24.72
2023-03-05T01:35:45.171Z,26.81
2023-03-05T01:38:12.456Z,26.98
2023-03-05T01:40:39.523Z,26.11
2023-03-05T01:43:06.675Z,26.23
2023-03-05T01:45:34.595Z,26.91
2023-03-05T01:48:01.716Z,27.25
2023-03-05T01:50:29.639Z,27.18
2023-03-05T01:52:56.635Z,27.00
2023-03-05T01:55:23.577Z,27.16
2023-03-05T01:57:50.620Z,27.38
2023-03-05T02:00:20.300Z,26.81
2023-03-05T02:02:48.922Z,26.35
2023-03-05T02:05:18.010Z,26.70
2023-03-05T02:07:45.725Z,26.44
2023-03-05T02:10:12.752Z,26.72
2023-03-05T02:12:39.730Z,25.74
2023-03-05T02:15:08.615Z,27.34
2023-03-05T02:17:36.662Z,26.74
2023-03-05T02:20:04.552Z,26.57
2023-03-05T02:22:34.079Z,27.71
2023-03-05T02:25:01.169Z,26.58
2023-03-05T02:27:28.361Z,26.97
2023-03-05T02:29:55.412Z,26.68
2023-03-05T02:32:22.379Z,27.48
2023-03-05T02:34:50.513Z,28.45
2023-03-05T02:37:17.591Z,28.44
2023-03-05T02:39:51.788Z,28.30
2023-03-05T02:42:22.473Z,29.16
2023-03-05T02:44:49.539Z,28.85
2023-03-05T02:47:16.535Z,30.11
2023-03-05T02:49:43.611Z,29.71
2023-03-05T02:52:14.839Z,30.94
2023-03-05T02:54:41.982Z,30.51
2023-03-05T02:57:08.880Z,29.69
2023-03-05T02:59:35.930Z,30.21
2023-03-05T03:02:10.098Z,30.50
2023-03-05T03:04:36.997Z,30.39
2023-03-05T03:07:04.490Z,32.02
2023-03-05T03:09:32.145Z,33.62
2023-03-05T03:11:59.203Z,34.03
2023-03-05T03:14:29.072Z,34.84
2023-03-05T03:16:56.378Z,35.32
2023-03-05T03:19:23.314Z,35.71
2023-03-05T03:21:50.530Z,37.00
2023-03-05T03:24:19.248Z,36.94
2023-03-05T03:26:49.058Z,36.52
2023-03-05T03:29:20.066Z,38.44
2023-03-05T03:31:47.868Z,39.13
2023-03-05T03:34:16.242Z,39.63
2023-03-05T03:36:43.206Z,40.15
2023-03-05T03:39:10.256Z,41.21
2023-03-05T03:41:44.458Z,39.70
2023-03-05T03:44:11.826Z,40.63
2023-03-05T03:46:38.893Z,40.91
2023-03-05T03:49:05.615Z,41.59
2023-03-05T03:51:32.650Z,42.22
2023-03-05T03:53:59.746Z,41.13
2023-03-05T03:56:27.236Z,43.08
2023-03-05T03:58:54.116Z,43.90
2023-03-05T04:01:23.161Z,45.22
2023-03-05T04:03:50.330Z,45.05
2023-03-05T04:06:16.911Z,44.98
2023-03-05T04:08:43.929Z,46.07
2023-03-05T04:11:10.992Z,45.45
2023-03-05T04:16:33.841Z,45.72
2023-03-05T04:19:03.468Z,45.17
2023-03-05T04:21:30.445Z,44.30
2023-03-05T04:23:57.386Z,44.81
2023-03-05T04:26:24.325Z,45.74
2023-03-05T04:28:51.318Z,45.81
2023-03-05T04:31:19.750Z,44.40
2023-03-05T04:33:47.722Z,42.99
2023-03-05T04:36:17.297Z,45.19
2023-03-05T04:38:44.332Z,43.79
2023-03-05T04:41:11.214Z,43.46
2023-03-05T04:43:41.062Z,46.82
2023-03-05T04:46:11.051Z,46.56
2023-03-05T04:48:37.984Z,46.53
2023-03-05T04:51:07.394Z,46.05
2023-03-05T04:53:37.016Z,44.60
2023-03-05T04:56:07.317Z,43.55
2023-03-05T04:58:41.058Z,42.57
2023-03-05T05:01:08.773Z,40.24
2023-03-05T05:03:38.641Z,39.87
2023-03-05T05:06:08.298Z,44.01
2023-03-05T05:08:38.058Z,43.72
2023-03-05T05:11:05.167Z,44.08
2023-03-05T05:13:35.688Z,44.92
2023-03-05T05:16:02.694Z,44.49
2023-03-05T05:18:29.741Z,43.06
2023-03-05T05:20:58.465Z,43.70
2023-03-05T05:23:27.072Z,44.83
2023-03-05T05:25:54.053Z,42.77
2023-03-05T05:28:24.337Z,40.88
2023-03-05T05:30:51.935Z,41.35
2023-03-05T05:33:19.090Z,41.52
2023-03-05T05:35:47.618Z,40.83
2023-03-05T05:38:14.618Z,40.80
2023-03-05T05:40:43.825Z,41.25
2023-03-05T05:43:10.699Z,42.58
2023-03-05T05:45:37.694Z,42.89
2023-03-05T05:48:04.677Z,43.58
2023-03-05T05:50:31.633Z,44.02
2023-03-05T05:52:58.735Z,44.46
2023-03-05T05:55:26.236Z,44.60
2023-03-05T05:57:53.095Z,45.63
2023-03-05T06:00:20.020Z,44.56
2023-03-05T06:02:47.003Z,44.85
2023-03-05T06:05:14.554Z,45.68
2023-03-05T06:07:41.497Z,45.64
2023-03-05T06:10:11.037Z,46.38
2023-03-05T06:12:40.984Z,46.28
2023-03-05T06:15:07.488Z,46.18
2023-03-05T06:17:34.409Z,45.31
2023-03-05T06:20:01.360Z,46.07
2023-03-05T06:22:28.966Z,45.57
2023-03-05T06:24:55.872Z,47.69
2023-03-05T06:27:22.847Z,46.86
2023-03-05T06:29:51.592Z,47.22
2023-03-05T06:32:21.148Z,46.56
2023-03-05T06:34:54.032Z,47.57
2023-03-05T06:37:20.806Z,47.99
2023-03-05T06:39:47.695Z,49.36
2023-03-05T06:42:14.935Z,51.14
2023-03-05T06:44:45.941Z,50.07
2023-03-05T06:47:14.825Z,50.27
2023-03-05T06:49:43.180Z,51.21
2023-03-05T06:52:10.014Z,51.40
2023-03-05T06:54:36.857Z,49.69
2023-03-05T06:57:10.340Z,51.58
2023-03-05T06:59:37.242Z,51.10
2023-03-05T07:02:04.192Z,50.58
2023-03-05T07:04:31.723Z,49.81
2023-03-05T07:06:59.268Z,49.03
2023-03-05T07:09:26.704Z,49.33
2023-03-05T07:11:54.223Z,50.25
2023-03-05T07:14:24.253Z,48.95
2023-03-05T07:16:52.056Z,48.47
2023-03-05T07:22:12.534Z,48.05
2023-03-05T07:24:41.253Z,50.51
2023-03-05T07:27:18.202Z,51.27
2023-03-05T07:33:04.046Z,70.74
2023-03-05T07:35:31.578Z,53.07
2023-03-05T07:44:10.599Z,69.05
2023-03-05T07:46:57.113Z,48.84
2023-03-05T07:52:30.716Z,64.38
2023-03-05T07:54:58.737Z,45.80
2023-03-05T07:57:29.676Z,48.57
2023-03-05T08:00:05.891Z,58.52
2023-03-05T08:05:25.590Z,58.03
2023-03-05T08:07:53.033Z,47.37
2023-03-05T08:10:19.963Z,46.22
2023-03-05T08:12:46.599Z,62.54
2023-03-05T08:15:13.458Z,50.73
2023-03-05T08:17:42.275Z,51.05
2023-03-05T08:20:09.649Z,44.35
2023-03-05T08:22:39.204Z,44.06
2023-03-05T08:25:13.128Z,45.95
2023-03-05T08:27:43.087Z,45.18
2023-03-05T08:30:09.701Z,44.77
2023-03-05T08:32:37.788Z,45.81
2023-03-05T08:35:09.542Z,45.99
2023-03-05T08:37:36.728Z,46.22
2023-03-05T08:40:05.210Z,44.92
2023-03-05T08:42:34.209Z,46.21
2023-03-05T08:45:00.726Z,45.21
2023-03-05T08:47:28.706Z,44.17
2023-03-05T08:50:02.730Z,45.25
2023-03-05T08:52:29.696Z,45.62
2023-03-05T08:54:58.455Z,51.51
2023-03-05T08:57:28.992Z,44.60
2023-03-05T08:59:55.974Z,44.66
2023-03-05T09:02:23.501Z,44.39
2023-03-05T09:04:50.111Z,43.68
2023-03-05T09:07:17.011Z,43.29
2023-03-05T09:09:43.872Z,44.95
2023-03-05T09:38:09.273Z,45.53
2023-03-05T09:40:53.522Z,45.42
2023-03-05T09:52:22.900Z,47.44
2023-03-05T09:58:05.899Z,46.55
2023-03-05T10:00:36.018Z,45.16
2023-03-05T10:03:06.185Z,45.14
2023-03-05T10:05:34.822Z,46.29
2023-03-05T10:08:01.630Z,47.82
2023-03-05T10:10:31.238Z,45.53
2023-03-05T10:12:58.278Z,45.68
2023-03-05T10:15:26.105Z,45.25
2023-03-05T10:17:54.684Z,46.49
2023-03-05T10:20:21.820Z,45.68
2023-03-05T10:22:48.823Z,45.20
2023-03-05T10:25:17.445Z,45.47
2023-03-05T10:27:48.144Z,45.42
2023-03-05T10:30:15.961Z,46.68
2023-03-05T10:32:46.926Z,46.12
2023-03-05T10:35:14.954Z,46.30
2023-03-05T10:40:22.324Z,46.52
2023-03-05T10:42:49.279Z,44.32
2023-03-05T10:45:20.192Z,44.78
2023-03-05T10:47:47.144Z,47.32
2023-03-05T10:50:14.310Z,46.19
2023-03-05T10:52:41.892Z,45.61
2023-03-05T10:55:10.432Z,46.00
2023-03-05T10:57:45.106Z,45.61
2023-03-05T11:00:12.378Z,45.88
2023-03-05T11:02:39.842Z,46.73
2023-03-05T11:05:09.911Z,46.69
2023-03-05T11:07:38.815Z,46.66
2023-03-05T11:10:11.858Z,47.01
2023-03-05T11:12:42.313Z,46.08
2023-03-05T11:18:10.936Z,45.69
2023-03-05T11:20:38.290Z,47.37
2023-03-05T11:23:06.455Z,47.48
2023-03-05T11:25:35.861Z,47.66
2023-03-05T11:28:03.632Z,46.17
2023-03-05T11:30:31.948Z,47.55
2023-03-05T11:32:59.600Z,47.11
2023-03-05T11:35:27.070Z,47.38
2023-03-05T11:40:52.212Z,46.74
2023-03-05T11:43:18.929Z,46.74
2023-03-05T11:45:45.880Z,47.82
2023-03-05T11:48:14.824Z,47.46
2023-03-05T11:50:41.685Z,47.52
2023-03-05T11:56:02.273Z,46.72
2023-03-05T11:58:51.014Z,46.72
2023-03-05T12:01:22.998Z,45.83
2023-03-05T12:07:10.549Z,46.49
2023-03-05T12:12:22.803Z,45.95
2023-03-05T12:14:52.804Z,46.10
2023-03-05T12:17:23.241Z,45.98
2023-03-05T12:19:51.903Z,46.67
2023-03-05T16:00:42.116Z,48.33
2023-03-05T16:03:12.342Z,46.78
2023-03-05T16:05:41.350Z,45.53
2023-03-05T16:08:07.834Z,46.77
2023-03-05T16:10:34.664Z,45.72
2023-03-05T16:13:01.515Z,44.81
2023-03-05T16:15:28.365Z,45.62
2023-03-05T16:17:55.429Z,45.24
2023-03-05T16:20:25.110Z,44.22
2023-03-05T16:22:52.332Z,45.24
2023-03-05T16:28:53.936Z,45.45
2023-03-05T16:31:25.078Z,46.76
2023-03-05T16:33:52.161Z,47.31
2023-03-05T16:36:27.613Z,48.04
2023-03-05T16:38:54.200Z,46.24
2023-03-05T16:41:28.046Z,46.58
2023-03-05T16:43:55.125Z,48.35
2023-03-05T16:46:26.452Z,47.89
2023-03-05T16:48:53.410Z,47.95
2023-03-05T16:51:23.510Z,47.50
2023-03-05T22:05:06.650Z,48.95
2023-03-05T22:10:41.693Z,50.19
2023-03-05T22:29:03.234Z,47.20
2023-03-05T22:42:59.764Z,49.47
2023-03-05T22:45:26.770Z,50.63
2023-03-05T23:12:17.003Z,48.65
2023-03-05T23:27:47.908Z,46.31
2023-03-05T23:30:31.725Z,46.26
2023-03-05T23:36:15.048Z,46.28
2023-03-05T23:51:02.347Z,48.58
2023-03-05T23:53:29.437Z,48.77
